sensor_id;sensor_type;location;lat;lon;timestamp;temperature;humidity
12254;DHT22;6189;52.526;13.390;2024-03-07T00:01:26;9.20;99.90
12254;DHT22;6189;52.526;13.390;2024-03-07T00:04:13;9.20;99.90
12254;DHT22;6189;52.526;13.390;2024-03-07T00:07:00;9.20;99.90
12254;DHT22;6189;52.526;13.390;2024-03-07T00:09:49;9.20;99.90
12254;DHT22;6189;52.526;13.390;2024-03-07T00:12:39;9.20;99.90
12254;DHT22;6189;52.526;13.390;2024-03-07T00:15:27;9.20;99.90
12254;DHT22;6189;52.526;13.390;2024-03-07T00:18:15;9.20;99.90
12254;DHT22;6189;52.526;13.390;2024-03-07T00:21:03;9.20;99.90
12254;DHT22;6189;52.526;13.390;2024-03-07T00:23:50;9.30;99.90
12254;DHT22;6189;52.526;13.390;2024-03-07T00:26:37;9.30;99.90
12254;DHT22;6189;52.526;13.390;2024-03-07T00:29:25;9.40;99.90
12254;DHT22;6189;52.526;13.390;2024-03-07T00:32:14;9.40;99.90
12254;DHT22;6189;52.526;13.390;2024-03-07T00:35:01;9.30;99.90
12254;DHT22;6189;52.526;13.390;2024-03-07T00:37:49;9.30;99.90
12254;DHT22;6189;52.526;13.390;2024-03-07T00:40:36;9.20;99.90
12254;DHT22;6189;52.526;13.390;2024-03-07T00:43:24;9.20;99.90
12254;DHT22;6189;52.526;13.390;2024-03-07T00:46:12;9.20;99.90
12254;DHT22;6189;52.526;13.390;2024-03-07T00:49:00;9.30;99.90
12254;DHT22;6189;52.526;13.390;2024-03-07T00:51:47;9.30;99.90
12254;DHT22;6189;52.526;13.390;2024-03-07T00:54:34;9.30;99.90
12254;DHT22;6189;52.526;13.390;2024-03-07T00:57:21;9.30;99.90
12254;DHT22;6189;52.526;13.390;2024-03-07T01:00:09;9.20;99.90
12254;DHT22;6189;52.526;13.390;2024-03-07T01:03:01;9.20;99.90
12254;DHT22;6189;52.526;13.390;2024-03-07T01:05:48;9.20;99.90
12254;DHT22;6189;52.526;13.390;2024-03-07T01:08:35;9.20;99.90
12254;DHT22;6189;52.526;13.390;2024-03-07T01:11:22;9.20;99.90
12254;DHT22;6189;52.526;13.390;2024-03-07T01:14:09;9.20;99.90
12254;DHT22;6189;52.526;13.390;2024-03-07T01:16:56;9.20;99.90
12254;DHT22;6189;52.526;13.390;2024-03-07T01:19:45;9.20;99.90
12254;DHT22;6189;52.526;13.390;2024-03-07T01:22:32;9.20;99.90
12254;DHT22;6189;52.526;13.390;2024-03-07T01:25:19;9.20;99.90
12254;DHT22;6189;52.526;13.390;2024-03-07T01:28:07;9.20;99.90
12254;DHT22;6189;52.526;13.390;2024-03-07T01:30:58;9.20;99.90
12254;DHT22;6189;52.526;13.390;2024-03-07T01:33:45;9.20;99.90
12254;DHT22;6189;52.526;13.390;2024-03-07T01:36:33;9.10;99.90
12254;DHT22;6189;52.526;13.390;2024-03-07T01:39:20;9.10;99.90
12254;DHT22;6189;52.526;13.390;2024-03-07T01:42:07;9.10;99.90
12254;DHT22;6189;52.526;13.390;2024-03-07T01:44:55;9.10;99.90
12254;DHT22;6189;52.526;13.390;2024-03-07T01:47:42;9.20;99.90
12254;DHT22;6189;52.526;13.390;2024-03-07T01:50:29;9.20;99.90
12254;DHT22;6189;52.526;13.390;2024-03-07T01:53:18;9.20;99.90
12254;DHT22;6189;52.526;13.390;2024-03-07T01:56:05;9.10;99.90
12254;DHT22;6189;52.526;13.390;2024-03-07T01:58:52;9.10;99.90
12254;DHT22;6189;52.526;13.390;2024-03-07T02:01:40;9.00;99.90
12254;DHT22;6189;52.526;13.390;2024-03-07T02:04:27;9.20;99.90
12254;DHT22;6189;52.526;13.390;2024-03-07T02:07:14;9.00;99.90
12254;DHT22;6189;52.526;13.390;2024-03-07T02:10:03;9.00;99.90
12254;DHT22;6189;52.526;13.390;2024-03-07T02:12:50;8.90;99.90
12254;DHT22;6189;52.526;13.390;2024-03-07T02:15:38;8.90;99.90
12254;DHT22;6189;52.526;13.390;2024-03-07T02:18:25;9.00;99.90
12254;DHT22;6189;52.526;13.390;2024-03-07T02:21:14;9.00;99.90
12254;DHT22;6189;52.526;13.390;2024-03-07T02:24:01;9.00;99.90
12254;DHT22;6189;52.526;13.390;2024-03-07T02:26:48;8.90;99.90
12254;DHT22;6189;52.526;13.390;2024-03-07T02:29:35;9.00;99.90
12254;DHT22;6189;52.526;13.390;2024-03-07T02:32:23;8.90;99.90
12254;DHT22;6189;52.526;13.390;2024-03-07T02:35:12;8.80;99.90
12254;DHT22;6189;52.526;13.390;2024-03-07T02:38:03;8.80;99.90
12254;DHT22;6189;52.526;13.390;2024-03-07T02:40:50;8.70;99.90
12254;DHT22;6189;52.526;13.390;2024-03-07T02:43:38;8.70;99.90
12254;DHT22;6189;52.526;13.390;2024-03-07T02:46:25;8.70;99.90
12254;DHT22;6189;52.526;13.390;2024-03-07T02:49:12;8.70;99.90
12254;DHT22;6189;52.526;13.390;2024-03-07T02:52:00;8.70;99.90
12254;DHT22;6189;52.526;13.390;2024-03-07T02:54:48;8.60;99.90
12254;DHT22;6189;52.526;13.390;2024-03-07T02:57:35;8.60;99.90
12254;DHT22;6189;52.526;13.390;2024-03-07T03:00:22;8.60;99.90
12254;DHT22;6189;52.526;13.390;2024-03-07T03:03:15;8.60;99.90
12254;DHT22;6189;52.526;13.390;2024-03-07T03:06:02;8.60;99.90
12254;DHT22;6189;52.526;13.390;2024-03-07T03:08:51;8.60;99.90
12254;DHT22;6189;52.526;13.390;2024-03-07T03:11:41;8.60;99.90
12254;DHT22;6189;52.526;13.390;2024-03-07T03:14:28;8.50;99.90
12254;DHT22;6189;52.526;13.390;2024-03-07T03:17:15;8.50;99.90
12254;DHT22;6189;52.526;13.390;2024-03-07T03:20:03;8.40;99.90
12254;DHT22;6189;52.526;13.390;2024-03-07T03:23:00;8.40;99.90
12254;DHT22;6189;52.526;13.390;2024-03-07T03:25:48;8.40;99.90
12254;DHT22;6189;52.526;13.390;2024-03-07T03:28:37;8.40;99.90
12254;DHT22;6189;52.526;13.390;2024-03-07T03:31:27;8.40;99.90
12254;DHT22;6189;52.526;13.390;2024-03-07T03:34:14;8.40;99.90
12254;DHT22;6189;52.526;13.390;2024-03-07T03:37:01;8.40;99.90
12254;DHT22;6189;52.526;13.390;2024-03-07T03:39:48;8.60;99.90
12254;DHT22;6189;52.526;13.390;2024-03-07T03:42:36;8.50;99.90
12254;DHT22;6189;52.526;13.390;2024-03-07T03:45:26;8.30;99.90
12254;DHT22;6189;52.526;13.390;2024-03-07T03:48:13;8.30;99.90
12254;DHT22;6189;52.526;13.390;2024-03-07T03:51:00;8.30;99.90
12254;DHT22;6189;52.526;13.390;2024-03-07T03:53:47;8.30;99.90
12254;DHT22;6189;52.526;13.390;2024-03-07T03:56:34;8.20;99.90
12254;DHT22;6189;52.526;13.390;2024-03-07T03:59:25;8.20;99.90
12254;DHT22;6189;52.526;13.390;2024-03-07T04:02:14;8.20;99.90
12254;DHT22;6189;52.526;13.390;2024-03-07T04:05:03;8.20;99.90
12254;DHT22;6189;52.526;13.390;2024-03-07T04:07:50;8.10;99.90
12254;DHT22;6189;52.526;13.390;2024-03-07T04:10:38;8.10;99.90
12254;DHT22;6189;52.526;13.390;2024-03-07T04:13:26;8.00;99.90
12254;DHT22;6189;52.526;13.390;2024-03-07T04:16:14;8.00;99.90
12254;DHT22;6189;52.526;13.390;2024-03-07T04:19:05;8.00;99.90
12254;DHT22;6189;52.526;13.390;2024-03-07T04:21:54;7.90;99.90
12254;DHT22;6189;52.526;13.390;2024-03-07T04:24:42;8.20;99.90
12254;DHT22;6189;52.526;13.390;2024-03-07T04:27:29;7.90;99.90
12254;DHT22;6189;52.526;13.390;2024-03-07T04:30:16;8.00;99.90
12254;DHT22;6189;52.526;13.390;2024-03-07T04:33:04;7.90;99.90
12254;DHT22;6189;52.526;13.390;2024-03-07T04:35:53;7.90;99.90
12254;DHT22;6189;52.526;13.390;2024-03-07T04:38:40;7.80;99.90
12254;DHT22;6189;52.526;13.390;2024-03-07T04:41:31;7.80;99.90
12254;DHT22;6189;52.526;13.390;2024-03-07T04:44:18;7.80;99.90
12254;DHT22;6189;52.526;13.390;2024-03-07T04:47:08;7.80;99.90
12254;DHT22;6189;52.526;13.390;2024-03-07T04:49:55;7.80;99.90
12254;DHT22;6189;52.526;13.390;2024-03-07T04:52:44;7.80;99.90
12254;DHT22;6189;52.526;13.390;2024-03-07T04:55:31;7.70;99.90
12254;DHT22;6189;52.526;13.390;2024-03-07T04:58:18;7.70;99.90
12254;DHT22;6189;52.526;13.390;2024-03-07T05:01:05;7.70;99.90
12254;DHT22;6189;52.526;13.390;2024-03-07T05:03:52;7.70;99.90
12254;DHT22;6189;52.526;13.390;2024-03-07T05:06:40;7.60;99.90
12254;DHT22;6189;52.526;13.390;2024-03-07T05:09:28;7.60;99.90
12254;DHT22;6189;52.526;13.390;2024-03-07T05:12:16;7.60;99.90
12254;DHT22;6189;52.526;13.390;2024-03-07T05:15:04;7.60;99.90
12254;DHT22;6189;52.526;13.390;2024-03-07T05:17:52;7.50;99.90
12254;DHT22;6189;52.526;13.390;2024-03-07T05:20:41;7.50;99.90
12254;DHT22;6189;52.526;13.390;2024-03-07T05:23:28;7.50;99.90
12254;DHT22;6189;52.526;13.390;2024-03-07T05:26:18;7.50;99.90
12254;DHT22;6189;52.526;13.390;2024-03-07T05:29:05;7.50;99.90
12254;DHT22;6189;52.526;13.390;2024-03-07T05:31:53;7.50;99.90
12254;DHT22;6189;52.526;13.390;2024-03-07T05:34:41;7.50;99.90
12254;DHT22;6189;52.526;13.390;2024-03-07T05:37:29;7.40;99.90
12254;DHT22;6189;52.526;13.390;2024-03-07T05:40:17;7.40;99.90
12254;DHT22;6189;52.526;13.390;2024-03-07T05:43:06;7.40;99.90
12254;DHT22;6189;52.526;13.390;2024-03-07T05:45:53;7.40;99.90
12254;DHT22;6189;52.526;13.390;2024-03-07T05:48:40;7.40;99.90
12254;DHT22;6189;52.526;13.390;2024-03-07T05:51:27;7.40;99.90
12254;DHT22;6189;52.526;13.390;2024-03-07T05:54:15;7.40;99.90
12254;DHT22;6189;52.526;13.390;2024-03-07T05:57:03;7.40;99.90
12254;DHT22;6189;52.526;13.390;2024-03-07T05:59:53;7.50;99.90
12254;DHT22;6189;52.526;13.390;2024-03-07T06:02:42;7.40;99.90
12254;DHT22;6189;52.526;13.390;2024-03-07T06:05:29;7.40;99.90
12254;DHT22;6189;52.526;13.390;2024-03-07T06:08:17;7.40;99.90
12254;DHT22;6189;52.526;13.390;2024-03-07T06:11:05;7.40;99.90
12254;DHT22;6189;52.526;13.390;2024-03-07T06:13:53;7.40;99.90
12254;DHT22;6189;52.526;13.390;2024-03-07T06:16:42;7.60;99.90
12254;DHT22;6189;52.526;13.390;2024-03-07T06:19:29;7.40;99.90
12254;DHT22;6189;52.526;13.390;2024-03-07T06:22:16;7.30;99.90
12254;DHT22;6189;52.526;13.390;2024-03-07T06:25:04;7.30;99.90
12254;DHT22;6189;52.526;13.390;2024-03-07T06:27:52;7.20;99.90
12254;DHT22;6189;52.526;13.390;2024-03-07T06:30:42;7.50;99.90
12254;DHT22;6189;52.526;13.390;2024-03-07T06:33:32;7.60;99.90
12254;DHT22;6189;52.526;13.390;2024-03-07T06:36:19;7.20;99.90
12254;DHT22;6189;52.526;13.390;2024-03-07T06:39:06;7.30;99.90
12254;DHT22;6189;52.526;13.390;2024-03-07T06:41:55;7.30;99.90
12254;DHT22;6189;52.526;13.390;2024-03-07T06:44:43;7.60;99.90
12254;DHT22;6189;52.526;13.390;2024-03-07T06:47:30;7.20;99.90
12254;DHT22;6189;52.526;13.390;2024-03-07T06:50:18;7.40;99.90
12254;DHT22;6189;52.526;13.390;2024-03-07T06:53:07;7.30;99.90
12254;DHT22;6189;52.526;13.390;2024-03-07T06:55:56;7.30;99.90
12254;DHT22;6189;52.526;13.390;2024-03-07T06:58:43;7.30;99.90
12254;DHT22;6189;52.526;13.390;2024-03-07T07:01:32;7.40;99.90
12254;DHT22;6189;52.526;13.390;2024-03-07T07:04:20;7.40;99.90
12254;DHT22;6189;52.526;13.390;2024-03-07T07:07:10;7.40;99.90
12254;DHT22;6189;52.526;13.390;2024-03-07T07:09:59;7.30;99.90
12254;DHT22;6189;52.526;13.390;2024-03-07T07:12:47;7.30;99.90
12254;DHT22;6189;52.526;13.390;2024-03-07T07:15:34;7.30;99.90
12254;DHT22;6189;52.526;13.390;2024-03-07T07:18:22;7.30;99.90
12254;DHT22;6189;52.526;13.390;2024-03-07T07:21:10;7.30;99.90
12254;DHT22;6189;52.526;13.390;2024-03-07T07:24:03;7.30;99.90
12254;DHT22;6189;52.526;13.390;2024-03-07T07:26:50;7.30;99.90
12254;DHT22;6189;52.526;13.390;2024-03-07T07:29:37;7.30;99.90
12254;DHT22;6189;52.526;13.390;2024-03-07T07:32:24;7.30;99.90
12254;DHT22;6189;52.526;13.390;2024-03-07T07:35:13;7.30;99.90
12254;DHT22;6189;52.526;13.390;2024-03-07T07:38:00;7.30;99.90
12254;DHT22;6189;52.526;13.390;2024-03-07T07:40:49;7.20;99.90
12254;DHT22;6189;52.526;13.390;2024-03-07T07:43:37;7.30;99.90
12254;DHT22;6189;52.526;13.390;2024-03-07T07:46:26;7.30;99.90
12254;DHT22;6189;52.526;13.390;2024-03-07T07:49:13;7.30;99.90
12254;DHT22;6189;52.526;13.390;2024-03-07T07:52:01;7.80;99.90
12254;DHT22;6189;52.526;13.390;2024-03-07T07:54:49;7.40;99.90
12254;DHT22;6189;52.526;13.390;2024-03-07T07:57:37;7.40;99.90
12254;DHT22;6189;52.526;13.390;2024-03-07T08:00:24;7.50;99.90
12254;DHT22;6189;52.526;13.390;2024-03-07T08:03:14;7.50;99.90
12254;DHT22;6189;52.526;13.390;2024-03-07T08:06:03;7.60;99.90
12254;DHT22;6189;52.526;13.390;2024-03-07T08:08:51;7.60;99.90
12254;DHT22;6189;52.526;13.390;2024-03-07T08:11:38;7.70;99.90
12254;DHT22;6189;52.526;13.390;2024-03-07T08:14:28;7.70;99.90
12254;DHT22;6189;52.526;13.390;2024-03-07T08:17:16;7.70;99.90
12254;DHT22;6189;52.526;13.390;2024-03-07T08:20:03;7.80;99.90
12254;DHT22;6189;52.526;13.390;2024-03-07T08:22:56;7.80;99.90
12254;DHT22;6189;52.526;13.390;2024-03-07T08:25:43;7.80;99.90
12254;DHT22;6189;52.526;13.390;2024-03-07T08:28:30;7.80;99.90
12254;DHT22;6189;52.526;13.390;2024-03-07T08:31:18;7.90;99.90
12254;DHT22;6189;52.526;13.390;2024-03-07T08:34:06;8.10;99.90
12254;DHT22;6189;52.526;13.390;2024-03-07T08:36:53;8.20;99.90
12254;DHT22;6189;52.526;13.390;2024-03-07T08:39:40;8.10;99.90
12254;DHT22;6189;52.526;13.390;2024-03-07T08:42:27;8.20;99.90
12254;DHT22;6189;52.526;13.390;2024-03-07T08:45:14;8.30;99.90
12254;DHT22;6189;52.526;13.390;2024-03-07T08:48:06;8.30;99.90
12254;DHT22;6189;52.526;13.390;2024-03-07T08:50:54;8.60;99.90
12254;DHT22;6189;52.526;13.390;2024-03-07T08:53:41;8.40;99.90
12254;DHT22;6189;52.526;13.390;2024-03-07T08:56:28;8.40;99.90
12254;DHT22;6189;52.526;13.390;2024-03-07T08:59:15;8.50;99.90
12254;DHT22;6189;52.526;13.390;2024-03-07T09:02:03;8.50;99.90
12254;DHT22;6189;52.526;13.390;2024-03-07T09:04:52;8.60;99.90
12254;DHT22;6189;52.526;13.390;2024-03-07T09:07:39;8.60;99.90
12254;DHT22;6189;52.526;13.390;2024-03-07T09:10:27;8.60;99.90
12254;DHT22;6189;52.526;13.390;2024-03-07T09:13:15;8.60;99.90
12254;DHT22;6189;52.526;13.390;2024-03-07T09:16:03;9.10;99.90
12254;DHT22;6189;52.526;13.390;2024-03-07T09:18:51;9.00;99.90
12254;DHT22;6189;52.526;13.390;2024-03-07T09:21:39;9.10;99.90
12254;DHT22;6189;52.526;13.390;2024-03-07T09:24:27;9.10;99.90
12254;DHT22;6189;52.526;13.390;2024-03-07T09:27:14;9.10;99.90
12254;DHT22;6189;52.526;13.390;2024-03-07T09:30:06;9.20;99.90
12254;DHT22;6189;52.526;13.390;2024-03-07T09:32:57;9.10;99.90
12254;DHT22;6189;52.526;13.390;2024-03-07T09:35:44;9.20;99.90
12254;DHT22;6189;52.526;13.390;2024-03-07T09:38:32;9.40;99.90
12254;DHT22;6189;52.526;13.390;2024-03-07T09:41:20;9.50;99.90
12254;DHT22;6189;52.526;13.390;2024-03-07T09:44:08;9.20;99.90
12254;DHT22;6189;52.526;13.390;2024-03-07T09:46:57;9.00;99.90
12254;DHT22;6189;52.526;13.390;2024-03-07T09:49:46;9.00;99.90
12254;DHT22;6189;52.526;13.390;2024-03-07T09:52:33;9.10;99.90
12254;DHT22;6189;52.526;13.390;2024-03-07T09:55:24;8.90;99.90
12254;DHT22;6189;52.526;13.390;2024-03-07T09:58:11;8.90;99.90
12254;DHT22;6189;52.526;13.390;2024-03-07T10:00:59;9.00;99.90
12254;DHT22;6189;52.526;13.390;2024-03-07T10:03:47;9.10;99.90
12254;DHT22;6189;52.526;13.390;2024-03-07T10:06:35;9.20;99.90
12254;DHT22;6189;52.526;13.390;2024-03-07T10:09:22;9.20;99.90
12254;DHT22;6189;52.526;13.390;2024-03-07T10:12:11;9.20;99.90
12254;DHT22;6189;52.526;13.390;2024-03-07T10:15:02;9.30;99.90
12254;DHT22;6189;52.526;13.390;2024-03-07T10:17:50;9.40;99.90
12254;DHT22;6189;52.526;13.390;2024-03-07T10:20:37;9.60;99.90
12254;DHT22;6189;52.526;13.390;2024-03-07T10:23:28;9.50;99.90
12254;DHT22;6189;52.526;13.390;2024-03-07T10:26:15;9.40;99.90
12254;DHT22;6189;52.526;13.390;2024-03-07T10:29:04;9.20;99.60
12254;DHT22;6189;52.526;13.390;2024-03-07T10:31:53;9.10;99.60
12254;DHT22;6189;52.526;13.390;2024-03-07T10:34:40;9.20;99.90
12254;DHT22;6189;52.526;13.390;2024-03-07T10:37:34;9.40;99.90
12254;DHT22;6189;52.526;13.390;2024-03-07T10:40:21;9.40;99.40
12254;DHT22;6189;52.526;13.390;2024-03-07T10:43:09;9.60;99.40
12254;DHT22;6189;52.526;13.390;2024-03-07T10:45:58;9.70;98.40
12254;DHT22;6189;52.526;13.390;2024-03-07T10:48:46;9.70;97.90
12254;DHT22;6189;52.526;13.390;2024-03-07T10:51:37;9.70;96.40
12254;DHT22;6189;52.526;13.390;2024-03-07T10:54:34;9.60;97.60
12254;DHT22;6189;52.526;13.390;2024-03-07T10:57:31;9.70;96.20
12254;DHT22;6189;52.526;13.390;2024-03-07T11:00:22;9.60;95.60
12254;DHT22;6189;52.526;13.390;2024-03-07T11:03:22;9.60;95.60
12254;DHT22;6189;52.526;13.390;2024-03-07T11:06:10;9.50;94.90
12254;DHT22;6189;52.526;13.390;2024-03-07T11:08:58;9.50;95.60
12254;DHT22;6189;52.526;13.390;2024-03-07T11:11:45;9.60;95.40
12254;DHT22;6189;52.526;13.390;2024-03-07T11:14:33;9.60;95.10
12254;DHT22;6189;52.526;13.390;2024-03-07T11:17:21;9.70;95.60
12254;DHT22;6189;52.526;13.390;2024-03-07T11:20:20;9.80;94.70
12254;DHT22;6189;52.526;13.390;2024-03-07T11:26:24;9.60;93.60
12254;DHT22;6189;52.526;13.390;2024-03-07T11:32:13;9.70;94.70
12254;DHT22;6189;52.526;13.390;2024-03-07T11:35:03;9.90;95.50
12254;DHT22;6189;52.526;13.390;2024-03-07T11:37:57;10.00;95.90
12254;DHT22;6189;52.526;13.390;2024-03-07T11:40:45;10.10;95.80
12254;DHT22;6189;52.526;13.390;2024-03-07T11:43:34;10.40;94.50
12254;DHT22;6189;52.526;13.390;2024-03-07T11:46:22;10.50;94.20
12254;DHT22;6189;52.526;13.390;2024-03-07T11:49:09;10.50;93.30
12254;DHT22;6189;52.526;13.390;2024-03-07T11:51:59;10.60;92.50
12254;DHT22;6189;52.526;13.390;2024-03-07T11:54:48;10.50;94.10
12254;DHT22;6189;52.526;13.390;2024-03-07T11:57:37;10.50;94.20
12254;DHT22;6189;52.526;13.390;2024-03-07T12:00:26;10.60;94.00
12254;DHT22;6189;52.526;13.390;2024-03-07T12:03:20;10.70;93.20
12254;DHT22;6189;52.526;13.390;2024-03-07T12:06:09;10.90;93.10
12254;DHT22;6189;52.526;13.390;2024-03-07T12:08:59;11.00;92.70
12254;DHT22;6189;52.526;13.390;2024-03-07T12:11:48;11.10;93.50
12254;DHT22;6189;52.526;13.390;2024-03-07T12:14:38;11.20;93.20
12254;DHT22;6189;52.526;13.390;2024-03-07T12:17:25;11.30;92.50
12254;DHT22;6189;52.526;13.390;2024-03-07T12:20:16;11.30;93.00
12254;DHT22;6189;52.526;13.390;2024-03-07T12:23:13;11.40;93.10
12254;DHT22;6189;52.526;13.390;2024-03-07T12:26:04;11.60;91.80
12254;DHT22;6189;52.526;13.390;2024-03-07T12:28:53;11.50;89.70
12254;DHT22;6189;52.526;13.390;2024-03-07T12:31:41;11.40;91.30
12254;DHT22;6189;52.526;13.390;2024-03-07T12:34:28;11.40;91.40
12254;DHT22;6189;52.526;13.390;2024-03-07T12:37:17;11.50;90.80
12254;DHT22;6189;52.526;13.390;2024-03-07T12:40:12;11.60;90.50
12254;DHT22;6189;52.526;13.390;2024-03-07T12:43:12;11.60;89.30
12254;DHT22;6189;52.526;13.390;2024-03-07T12:46:01;11.70;88.00
12254;DHT22;6189;52.526;13.390;2024-03-07T12:48:50;11.70;88.80
12254;DHT22;6189;52.526;13.390;2024-03-07T12:51:37;11.80;86.80
12254;DHT22;6189;52.526;13.390;2024-03-07T12:54:27;11.90;85.00
12254;DHT22;6189;52.526;13.390;2024-03-07T12:57:14;12.10;84.50
12254;DHT22;6189;52.526;13.390;2024-03-07T13:00:02;12.00;84.30
12254;DHT22;6189;52.526;13.390;2024-03-07T13:03:04;11.80;84.00
12254;DHT22;6189;52.526;13.390;2024-03-07T13:05:51;11.70;83.60
12254;DHT22;6189;52.526;13.390;2024-03-07T13:08:40;11.50;85.40
12254;DHT22;6189;52.526;13.390;2024-03-07T13:11:28;11.50;80.60
12254;DHT22;6189;52.526;13.390;2024-03-07T13:14:17;11.50;80.20
12254;DHT22;6189;52.526;13.390;2024-03-07T13:17:04;11.30;77.30
12254;DHT22;6189;52.526;13.390;2024-03-07T13:19:53;10.90;78.10
12254;DHT22;6189;52.526;13.390;2024-03-07T13:22:45;10.60;81.20
12254;DHT22;6189;52.526;13.390;2024-03-07T13:25:33;10.60;82.50
12254;DHT22;6189;52.526;13.390;2024-03-07T13:28:20;10.70;83.00
12254;DHT22;6189;52.526;13.390;2024-03-07T13:31:10;10.80;84.60
12254;DHT22;6189;52.526;13.390;2024-03-07T13:33:58;11.10;83.90
12254;DHT22;6189;52.526;13.390;2024-03-07T13:36:48;11.20;83.60
12254;DHT22;6189;52.526;13.390;2024-03-07T13:39:36;11.20;80.40
12254;DHT22;6189;52.526;13.390;2024-03-07T13:42:24;11.20;80.40
12254;DHT22;6189;52.526;13.390;2024-03-07T13:45:11;11.30;81.40
12254;DHT22;6189;52.526;13.390;2024-03-07T13:47:58;11.40;81.70
12254;DHT22;6189;52.526;13.390;2024-03-07T13:50:46;11.50;82.30
12254;DHT22;6189;52.526;13.390;2024-03-07T13:53:36;11.40;77.20
12254;DHT22;6189;52.526;13.390;2024-03-07T13:56:36;11.20;79.00
12254;DHT22;6189;52.526;13.390;2024-03-07T13:59:30;11.10;77.20
12254;DHT22;6189;52.526;13.390;2024-03-07T14:02:33;11.00;78.40
12254;DHT22;6189;52.526;13.390;2024-03-07T14:05:41;11.10;81.00
12254;DHT22;6189;52.526;13.390;2024-03-07T14:12:03;11.10;80.10
12254;DHT22;6189;52.526;13.390;2024-03-07T14:15:11;11.10;79.60
12254;DHT22;6189;52.526;13.390;2024-03-07T14:18:15;10.90;80.30
12254;DHT22;6189;52.526;13.390;2024-03-07T14:27:29;10.80;80.40
12254;DHT22;6189;52.526;13.390;2024-03-07T14:30:19;10.60;79.10
12254;DHT22;6189;52.526;13.390;2024-03-07T14:33:10;10.50;81.90
12254;DHT22;6189;52.526;13.390;2024-03-07T14:35:59;10.40;81.60
12254;DHT22;6189;52.526;13.390;2024-03-07T14:38:50;10.40;82.00
12254;DHT22;6189;52.526;13.390;2024-03-07T14:41:42;10.40;80.70
12254;DHT22;6189;52.526;13.390;2024-03-07T14:44:32;10.50;80.20
12254;DHT22;6189;52.526;13.390;2024-03-07T14:47:19;10.40;81.70
12254;DHT22;6189;52.526;13.390;2024-03-07T14:50:07;10.40;80.10
12254;DHT22;6189;52.526;13.390;2024-03-07T14:52:55;10.30;81.90
12254;DHT22;6189;52.526;13.390;2024-03-07T14:55:43;10.30;81.00
12254;DHT22;6189;52.526;13.390;2024-03-07T14:58:31;10.30;80.90
12254;DHT22;6189;52.526;13.390;2024-03-07T15:01:19;10.20;79.10
12254;DHT22;6189;52.526;13.390;2024-03-07T15:04:07;10.10;79.30
12254;DHT22;6189;52.526;13.390;2024-03-07T15:06:56;10.10;79.00
12254;DHT22;6189;52.526;13.390;2024-03-07T15:09:44;10.10;78.60
12254;DHT22;6189;52.526;13.390;2024-03-07T15:12:31;10.10;77.20
12254;DHT22;6189;52.526;13.390;2024-03-07T15:15:18;10.10;77.10
12254;DHT22;6189;52.526;13.390;2024-03-07T15:18:11;10.00;77.10
12254;DHT22;6189;52.526;13.390;2024-03-07T15:20:58;9.90;77.60
12254;DHT22;6189;52.526;13.390;2024-03-07T15:23:45;10.00;78.40
12254;DHT22;6189;52.526;13.390;2024-03-07T15:26:33;9.90;79.90
12254;DHT22;6189;52.526;13.390;2024-03-07T15:29:20;10.20;79.10
12254;DHT22;6189;52.526;13.390;2024-03-07T15:32:07;9.90;79.20
12254;DHT22;6189;52.526;13.390;2024-03-07T15:34:56;9.80;79.80
12254;DHT22;6189;52.526;13.390;2024-03-07T15:37:43;9.90;80.80
12254;DHT22;6189;52.526;13.390;2024-03-07T15:40:32;9.90;79.50
12254;DHT22;6189;52.526;13.390;2024-03-07T15:43:19;9.60;80.30
12254;DHT22;6189;52.526;13.390;2024-03-07T15:46:06;9.60;80.80
12254;DHT22;6189;52.526;13.390;2024-03-07T15:48:53;9.50;80.40
12254;DHT22;6189;52.526;13.390;2024-03-07T15:51:42;9.50;80.70
12254;DHT22;6189;52.526;13.390;2024-03-07T15:54:32;9.40;81.60
12254;DHT22;6189;52.526;13.390;2024-03-07T15:57:20;9.50;82.50
12254;DHT22;6189;52.526;13.390;2024-03-07T16:00:07;9.50;83.10
12254;DHT22;6189;52.526;13.390;2024-03-07T16:03:08;9.60;83.60
12254;DHT22;6189;52.526;13.390;2024-03-07T16:05:55;9.70;82.00
12254;DHT22;6189;52.526;13.390;2024-03-07T16:08:44;9.60;82.50
12254;DHT22;6189;52.526;13.390;2024-03-07T16:11:31;9.60;82.70
12254;DHT22;6189;52.526;13.390;2024-03-07T16:14:19;9.60;82.30
12254;DHT22;6189;52.526;13.390;2024-03-07T16:17:06;9.40;82.90
12254;DHT22;6189;52.526;13.390;2024-03-07T16:19:54;9.30;83.10
12254;DHT22;6189;52.526;13.390;2024-03-07T16:22:44;9.30;83.80
12254;DHT22;6189;52.526;13.390;2024-03-07T16:25:34;9.20;84.20
12254;DHT22;6189;52.526;13.390;2024-03-07T16:28:23;9.20;84.80
12254;DHT22;6189;52.526;13.390;2024-03-07T16:31:13;9.30;85.20
12254;DHT22;6189;52.526;13.390;2024-03-07T16:34:00;9.30;86.50
12254;DHT22;6189;52.526;13.390;2024-03-07T16:36:48;9.30;86.50
12254;DHT22;6189;52.526;13.390;2024-03-07T16:39:39;9.40;86.50
12254;DHT22;6189;52.526;13.390;2024-03-07T16:42:30;9.50;85.50
12254;DHT22;6189;52.526;13.390;2024-03-07T16:45:18;9.50;85.30
12254;DHT22;6189;52.526;13.390;2024-03-07T16:48:06;9.30;86.00
12254;DHT22;6189;52.526;13.390;2024-03-07T16:50:55;9.30;86.80
12254;DHT22;6189;52.526;13.390;2024-03-07T16:53:42;9.30;86.80
12254;DHT22;6189;52.526;13.390;2024-03-07T16:56:30;9.30;86.60
12254;DHT22;6189;52.526;13.390;2024-03-07T16:59:24;9.20;87.00
12254;DHT22;6189;52.526;13.390;2024-03-07T17:02:11;9.20;87.90
12254;DHT22;6189;52.526;13.390;2024-03-07T17:04:58;9.20;87.50
12254;DHT22;6189;52.526;13.390;2024-03-07T17:07:45;9.20;88.50
12254;DHT22;6189;52.526;13.390;2024-03-07T17:10:33;9.30;88.70
12254;DHT22;6189;52.526;13.390;2024-03-07T17:13:21;9.40;88.40
12254;DHT22;6189;52.526;13.390;2024-03-07T17:16:10;9.40;88.80
12254;DHT22;6189;52.526;13.390;2024-03-07T17:18:57;9.30;89.70
12254;DHT22;6189;52.526;13.390;2024-03-07T17:21:44;9.40;89.10
12254;DHT22;6189;52.526;13.390;2024-03-07T17:24:31;9.30;89.10
12254;DHT22;6189;52.526;13.390;2024-03-07T17:27:18;9.10;90.00
12254;DHT22;6189;52.526;13.390;2024-03-07T17:30:06;9.30;90.30
12254;DHT22;6189;52.526;13.390;2024-03-07T17:32:55;9.30;90.20
12254;DHT22;6189;52.526;13.390;2024-03-07T17:35:44;9.30;90.20
12254;DHT22;6189;52.526;13.390;2024-03-07T17:38:31;9.40;90.30
12254;DHT22;6189;52.526;13.390;2024-03-07T17:41:18;9.30;90.20
12254;DHT22;6189;52.526;13.390;2024-03-07T17:44:07;9.30;90.10
12254;DHT22;6189;52.526;13.390;2024-03-07T17:47:02;9.30;90.40
12254;DHT22;6189;52.526;13.390;2024-03-07T17:49:55;9.30;90.70
12254;DHT22;6189;52.526;13.390;2024-03-07T17:52:42;9.20;90.90
12254;DHT22;6189;52.526;13.390;2024-03-07T17:55:31;9.20;91.00
12254;DHT22;6189;52.526;13.390;2024-03-07T17:58:18;9.30;91.00
12254;DHT22;6189;52.526;13.390;2024-03-07T18:01:05;9.20;91.30
12254;DHT22;6189;52.526;13.390;2024-03-07T18:03:52;9.20;91.30
12254;DHT22;6189;52.526;13.390;2024-03-07T18:06:41;9.20;91.50
12254;DHT22;6189;52.526;13.390;2024-03-07T18:09:30;9.10;91.70
12254;DHT22;6189;52.526;13.390;2024-03-07T18:12:17;9.10;91.70
12254;DHT22;6189;52.526;13.390;2024-03-07T18:15:05;9.10;91.60